Time;durP1;ratioP1;P1;durP2;ratioP2;P2;SDS_P1;SDS_P2;PMS_P1;PMS_P2;Temp;Humidity;BMP_temperature;BMP_pressure;BME280_temperature;BME280_humidity;BME280_pressure;Samples;Min_cycle;Max_cycle;Signal;HPM_P1;HPM_P2
2023/03/17 00:01:17;;;;;;;5.57;2.47;;;3.10;99.90;;;;;;5049064;28;20669;-54
2023/03/17 00:03:45;;;;;;;4.75;2.38;;;3.10;99.90;;;;;;5054330;28;20037;-52
2023/03/17 00:06:20;;;;;;;4.82;2.28;;;3.20;99.90;;;;;;5053442;28;20049;-51
2023/03/17 00:08:46;;;;;;;4.15;2.50;;;3.20;99.90;;;;;;5051930;28;20405;-52
2023/03/17 00:11:16;;;;;;;10.80;2.97;;;3.10;99.90;;;;;;5053674;28;20064;-52
2023/03/17 00:13:45;;;;;;;4.75;2.50;;;3.20;99.90;;;;;;5048974;28;20565;-52
2023/03/17 00:16:20;;;;;;;3.60;2.15;;;3.20;99.90;;;;;;5053441;28;20975;-53
2023/03/17 00:18:49;;;;;;;7.60;2.30;;;3.20;99.90;;;;;;5049501;28;20039;-55
2023/03/17 00:21:24;;;;;;;4.70;2.88;;;3.10;99.90;;;;;;5053441;28;20118;-52
2023/03/17 00:23:51;;;;;;;5.95;2.20;;;3.10;99.90;;;;;;5053791;28;20040;-52
2023/03/17 00:26:19;;;;;;;5.13;2.13;;;3.00;99.90;;;;;;5051243;28;20468;-54
2023/03/17 00:28:47;;;;;;;5.70;2.47;;;2.90;99.90;;;;;;5048845;28;20041;-51
2023/03/17 00:31:21;;;;;;;5.47;2.30;;;2.90;99.90;;;;;;5035285;28;20045;-52
2023/03/17 00:33:51;;;;;;;5.10;2.22;;;2.90;99.90;;;;;;5052032;28;20044;-55
2023/03/17 00:36:22;;;;;;;7.95;2.00;;;2.90;99.90;;;;;;5027046;28;20055;-49
2023/03/17 00:38:51;;;;;;;3.17;2.15;;;2.90;99.90;;;;;;5052963;28;20044;-53
2023/03/17 00:41:18;;;;;;;4.72;2.28;;;2.90;99.90;;;;;;5027192;28;20052;-51
2023/03/17 00:43:45;;;;;;;4.35;2.30;;;2.90;99.90;;;;;;5049155;28;20042;-54
2023/03/17 00:46:23;;;;;;;5.57;2.40;;;2.90;99.90;;;;;;5052969;28;20053;-52
2023/03/17 00:48:49;;;;;;;4.97;2.35;;;2.90;99.90;;;;;;5052300;28;20083;-50
2023/03/17 00:51:16;;;;;;;4.53;1.85;;;2.90;99.90;;;;;;5034889;28;20041;-51
2023/03/17 00:53:44;;;;;;;3.28;1.65;;;2.90;99.90;;;;;;5048495;28;20454;-52
2023/03/17 00:56:17;;;;;;;4.05;2.25;;;2.80;99.90;;;;;;5052925;28;20464;-50
2023/03/17 00:58:45;;;;;;;5.68;2.08;;;2.80;99.90;;;;;;5051340;28;20041;-55
2023/03/17 01:01:12;;;;;;;6.78;2.03;;;2.70;99.90;;;;;;5051182;28;20063;-50
2023/03/17 01:03:40;;;;;;;2.58;1.80;;;2.70;99.90;;;;;;5034261;28;20048;-52
2023/03/17 01:06:11;;;;;;;6.90;1.65;;;2.80;99.90;;;;;;5052818;28;20060;-50
2023/03/17 01:08:39;;;;;;;6.18;1.95;;;2.80;99.90;;;;;;5032127;28;20493;-52
2023/03/17 01:11:13;;;;;;;4.35;2.10;;;2.90;99.90;;;;;;5071460;28;20390;-50
2023/03/17 01:13:40;;;;;;;4.82;2.10;;;2.90;99.90;;;;;;5072715;28;20075;-51
2023/03/17 01:16:11;;;;;;;3.92;2.10;;;2.90;99.90;;;;;;5072864;28;20124;-50
2023/03/17 01:18:38;;;;;;;4.22;1.77;;;3.00;99.90;;;;;;5047912;28;20401;-53
2023/03/17 01:21:06;;;;;;;3.72;2.10;;;3.00;99.90;;;;;;5052668;28;20112;-52
2023/03/17 01:23:33;;;;;;;2.85;1.90;;;3.00;99.90;;;;;;5052448;28;20480;-50
2023/03/17 01:26:00;;;;;;;7.28;2.75;;;2.90;99.90;;;;;;5068170;28;20056;-51
2023/03/17 01:28:27;;;;;;;8.20;2.05;;;2.90;99.90;;;;;;5071755;28;20170;-54
2023/03/17 01:30:54;;;;;;;4.30;2.00;;;2.80;99.90;;;;;;5054117;28;20131;-52
2023/03/17 01:33:21;;;;;;;4.15;2.00;;;2.70;99.90;;;;;;5050345;28;20144;-52
2023/03/17 01:35:49;;;;;;;3.50;1.88;;;2.70;99.90;;;;;;5034716;28;20494;-52
2023/03/17 01:38:16;;;;;;;5.10;1.98;;;2.60;99.90;;;;;;5032919;28;20067;-54
2023/03/17 01:40:46;;;;;;;6.13;2.28;;;2.50;99.90;;;;;;5067817;28;20050;-51
2023/03/17 01:43:26;;;;;;;4.43;2.25;;;2.50;99.90;;;;;;5033411;28;20041;-51
2023/03/17 01:46:16;;;;;;;4.13;2.28;;;2.40;99.90;;;;;;5034215;28;20227;-51
2023/03/17 01:48:49;;;;;;;6.40;2.40;;;2.40;99.90;;;;;;5032648;28;20489;-53
2023/03/17 01:51:40;;;;;;;6.88;2.92;;;2.40;99.90;;;;;;5072007;28;20052;-53
2023/03/17 01:54:13;;;;;;;6.70;2.25;;;2.30;99.90;;;;;;5072148;28;20066;-51
2023/03/17 01:56:42;;;;;;;4.40;2.10;;;2.30;99.90;;;;;;5044821;28;20044;-53
2023/03/17 01:59:14;;;;;;;4.80;2.03;;;2.30;99.90;;;;;;5033761;28;20052;-50
2023/03/17 02:01:46;;;;;;;4.32;2.25;;;2.30;99.90;;;;;;5044082;28;20052;-50
2023/03/17 02:04:13;;;;;;;6.90;2.20;;;2.30;99.90;;;;;;5070762;28;20032;-49
2023/03/17 02:06:40;;;;;;;2.92;1.80;;;2.20;99.90;;;;;;5070801;28;20711;-50
2023/03/17 02:09:22;;;;;;;3.78;2.10;;;2.20;99.90;;;;;;5071203;28;20097;-54
2023/03/17 02:11:49;;;;;;;3.15;2.25;;;2.20;99.90;;;;;;5036019;28;20045;-55
2023/03/17 02:14:16;;;;;;;4.28;2.00;;;2.20;99.90;;;;;;5033510;28;20037;-55
2023/03/17 02:16:47;;;;;;;3.00;1.98;;;2.20;99.90;;;;;;5033313;28;20123;-51
2023/03/17 02:19:15;;;;;;;6.25;1.63;;;2.20;99.90;;;;;;5027007;28;20139;-49
2023/03/17 02:21:48;;;;;;;4.45;2.22;;;2.30;99.90;;;;;;5033511;28;20040;-50
2023/03/17 02:24:21;;;;;;;3.10;1.95;;;2.20;99.90;;;;;;5033450;28;20501;-51
2023/03/17 02:26:52;;;;;;;5.70;2.25;;;2.30;99.90;;;;;;5047586;28;20079;-52
2023/03/17 02:29:21;;;;;;;4.15;2.20;;;2.30;99.90;;;;;;5054789;28;20513;-52
2023/03/17 02:31:48;;;;;;;5.55;2.42;;;2.30;99.90;;;;;;5053136;28;20041;-51
2023/03/17 02:34:16;;;;;;;4.25;2.05;;;2.30;99.90;;;;;;5055205;28;20047;-53
2023/03/17 02:36:43;;;;;;;6.50;2.17;;;2.30;99.90;;;;;;5052791;28;20036;-52
2023/03/17 02:39:10;;;;;;;3.33;2.03;;;2.20;99.90;;;;;;5070505;28;20036;-50
2023/03/17 02:41:36;;;;;;;3.45;1.90;;;2.30;99.90;;;;;;5070283;28;20511;-53
2023/03/17 02:44:03;;;;;;;6.72;1.98;;;2.30;99.90;;;;;;5048950;28;20051;-51
2023/03/17 02:46:30;;;;;;;5.68;2.35;;;2.30;99.90;;;;;;5051178;28;20037;-54
2023/03/17 02:48:59;;;;;;;7.22;2.38;;;2.30;99.90;;;;;;5029386;28;20099;-50
2023/03/17 02:51:27;;;;;;;3.95;2.17;;;2.30;99.90;;;;;;5071016;28;20037;-51
2023/03/17 02:53:54;;;;;;;5.88;1.80;;;2.20;99.90;;;;;;5057808;28;20139;-52
2023/03/17 02:56:20;;;;;;;2.45;0.98;;;2.20;99.90;;;;;;5070546;28;20451;-52
2023/03/17 02:58:47;;;;;;;1.83;1.02;;;2.20;99.90;;;;;;5071324;28;20047;-50
2023/03/17 03:01:15;;;;;;;3.88;1.70;;;2.20;99.90;;;;;;5071125;28;20044;-52
2023/03/17 03:03:42;;;;;;;6.20;2.20;;;2.10;99.90;;;;;;5052564;28;20037;-51
2023/03/17 03:06:09;;;;;;;4.30;2.38;;;2.10;99.90;;;;;;5051194;28;20098;-51
2023/03/17 03:08:35;;;;;;;6.10;3.05;;;2.10;99.90;;;;;;5050908;28;20489;-51
2023/03/17 03:11:03;;;;;;;4.60;2.30;;;2.10;99.90;;;;;;5053429;28;20040;-52
2023/03/17 03:13:30;;;;;;;8.23;2.63;;;2.20;99.90;;;;;;5071022;28;20057;-50
2023/03/17 03:15:57;;;;;;;6.63;2.67;;;2.10;99.90;;;;;;5070803;28;20053;-51
2023/03/17 03:18:24;;;;;;;5.53;2.58;;;2.10;99.90;;;;;;5064602;28;20037;-51
2023/03/17 03:20:51;;;;;;;5.88;2.97;;;2.10;99.90;;;;;;5051353;28;20079;-52
2023/03/17 03:23:18;;;;;;;5.25;2.47;;;2.10;99.90;;;;;;5037389;28;20033;-49
2023/03/17 03:25:45;;;;;;;4.93;2.55;;;2.10;99.90;;;;;;5070956;28;20485;-51
2023/03/17 03:28:12;;;;;;;4.60;2.17;;;2.10;99.90;;;;;;5070341;28;20082;-51
2023/03/17 03:30:40;;;;;;;5.43;2.22;;;2.10;99.90;;;;;;5061954;28;20083;-50
2023/03/17 03:33:07;;;;;;;3.33;1.98;;;2.10;99.90;;;;;;5050783;28;20041;-52
2023/03/17 03:35:34;;;;;;;4.28;2.13;;;2.10;99.90;;;;;;5051085;28;20040;-50
2023/03/17 03:38:01;;;;;;;3.35;2.13;;;2.20;99.90;;;;;;5046473;28;20056;-50
2023/03/17 03:40:27;;;;;;;10.10;2.60;;;2.20;99.90;;;;;;5056641;28;20083;-51
2023/03/17 03:42:55;;;;;;;4.85;1.90;;;2.20;99.90;;;;;;5070589;28;20373;-49
2023/03/17 03:45:21;;;;;;;5.57;3.00;;;2.20;99.90;;;;;;5070758;28;20044;-52
2023/03/17 03:47:48;;;;;;;4.00;2.00;;;2.20;99.90;;;;;;5042429;28;20494;-50
2023/03/17 03:50:15;;;;;;;5.03;2.72;;;2.20;99.90;;;;;;5050128;28;20049;-50
2023/03/17 03:52:42;;;;;;;5.65;2.85;;;2.20;99.90;;;;;;5050814;28;20041;-51
2023/03/17 03:55:09;;;;;;;7.07;2.97;;;2.20;99.90;;;;;;5048820;28;20084;-51
2023/03/17 03:57:36;;;;;;;5.35;2.72;;;2.20;99.90;;;;;;5059451;28;20072;-50
2023/03/17 04:00:06;;;;;;;3.33;1.77;;;2.20;99.90;;;;;;5069535;28;20459;-53
2023/03/17 04:02:37;;;;;;;6.15;3.65;;;2.20;99.90;;;;;;5070657;28;20049;-52
2023/03/17 04:05:06;;;;;;;10.15;3.10;;;2.20;99.90;;;;;;5053891;28;20047;-50
2023/03/17 04:07:32;;;;;;;3.35;2.55;;;2.20;99.90;;;;;;5070999;28;20479;-50
2023/03/17 04:10:49;;;;;;;5.68;2.40;;;2.20;99.90;;;;;;5099465;22;20078;-51
2023/03/17 04:13:16;;;;;;;9.93;2.97;;;2.10;99.90;;;;;;5093388;28;20040;-50
2023/03/17 04:15:43;;;;;;;3.78;1.75;;;2.10;99.90;;;;;;5094192;28;20110;-52
2023/03/17 04:18:10;;;;;;;5.30;2.55;;;2.10;99.90;;;;;;5080524;28;20075;-50
2023/03/17 04:20:37;;;;;;;7.75;2.22;;;1.90;99.90;;;;;;5086416;28;20044;-49
2023/03/17 04:23:04;;;;;;;4.82;2.67;;;1.90;99.90;;;;;;5065081;28;20117;-49
2023/03/17 04:25:32;;;;;;;6.38;2.40;;;1.80;99.90;;;;;;5094350;28;20036;-49
2023/03/17 04:27:58;;;;;;;5.47;2.50;;;1.70;99.90;;;;;;5093346;28;20123;-48
2023/03/17 04:30:25;;;;;;;8.60;2.60;;;1.80;99.90;;;;;;5093639;28;20040;-49
2023/03/17 04:32:52;;;;;;;3.67;1.70;;;1.70;99.90;;;;;;5086832;28;20533;-51
2023/03/17 04:35:21;;;;;;;8.43;2.67;;;1.80;99.90;;;;;;5093921;28;20563;-49
2023/03/17 04:37:48;;;;;;;5.63;2.03;;;1.90;99.90;;;;;;5081401;28;20040;-49
2023/03/17 04:40:17;;;;;;;4.20;2.20;;;1.90;99.90;;;;;;5093344;28;20068;-49
2023/03/17 04:42:43;;;;;;;4.38;2.05;;;2.00;99.90;;;;;;5093057;28;20048;-49
2023/03/17 04:45:13;;;;;;;2.47;1.33;;;2.10;99.90;;;;;;5093694;28;20079;-50
2023/03/17 04:47:40;;;;;;;4.65;1.95;;;2.20;99.90;;;;;;5090065;28;20043;-50
2023/03/17 04:50:07;;;;;;;;;;;2.30;99.90;;;;;;5093724;28;20040;-49
2023/03/17 04:52:35;;;;;;;5.05;2.45;;;2.30;99.90;;;;;;5093624;28;19920;-49
2023/03/17 04:55:04;;;;;;;4.13;2.25;;;2.30;99.90;;;;;;5090377;28;20539;-48
2023/03/17 04:57:31;;;;;;;5.28;2.38;;;2.30;99.90;;;;;;5090751;28;20043;-50
2023/03/17 04:59:58;;;;;;;3.42;2.38;;;2.40;99.90;;;;;;5092591;28;20443;-49
2023/03/17 05:02:25;;;;;;;3.05;1.58;;;2.40;99.90;;;;;;5091910;28;20040;-49
2023/03/17 05:04:52;;;;;;;7.85;2.67;;;2.40;99.90;;;;;;5089792;28;20116;-51
2023/03/17 05:07:19;;;;;;;8.45;2.60;;;2.40;99.90;;;;;;5081915;28;20098;-49
2023/03/17 05:09:46;;;;;;;3.55;1.52;;;2.40;99.90;;;;;;5092689;28;20029;-48
2023/03/17 05:12:13;;;;;;;;;;;2.50;99.90;;;;;;5093364;28;20454;-52
2023/03/17 05:14:40;;;;;;;5.65;1.95;;;2.60;99.90;;;;;;5088517;28;19969;-48
2023/03/17 05:17:07;;;;;;;5.53;2.50;;;2.60;99.90;;;;;;5092038;28;20044;-49
2023/03/17 05:19:34;;;;;;;6.18;1.88;;;2.60;99.90;;;;;;5091533;28;20571;-50
2023/03/17 05:22:00;;;;;;;5.85;1.70;;;2.60;99.90;;;;;;5092690;28;20389;-50
2023/03/17 05:24:27;;;;;;;1.38;1.00;;;2.60;99.90;;;;;;5080710;28;20093;-48
2023/03/17 05:26:54;;;;;;;4.40;1.80;;;2.50;99.90;;;;;;5083717;28;20044;-50
2023/03/17 05:29:21;;;;;;;4.47;1.88;;;2.50;99.90;;;;;;5075440;28;20060;-50
2023/03/17 05:31:48;;;;;;;6.70;2.22;;;2.60;99.90;;;;;;5092068;28;20093;-49
2023/03/17 05:34:14;;;;;;;2.65;1.95;;;2.60;99.90;;;;;;5087920;28;20032;-49
2023/03/17 05:36:42;;;;;;;4.63;2.00;;;2.70;99.90;;;;;;5092893;28;20040;-48
2023/03/17 05:39:09;;;;;;;3.78;2.38;;;2.80;99.90;;;;;;5090986;28;20465;-49
2023/03/17 05:41:36;;;;;;;3.88;2.17;;;2.80;99.90;;;;;;5090659;28;20036;-49
2023/03/17 05:44:02;;;;;;;7.80;2.70;;;2.90;99.90;;;;;;5092323;28;20048;-51
2023/03/17 05:46:29;;;;;;;4.25;2.33;;;2.90;99.90;;;;;;5092512;28;20052;-49
2023/03/17 05:48:56;;;;;;;3.72;1.60;;;3.00;99.90;;;;;;5091825;28;20557;-50
2023/03/17 05:51:22;;;;;;;9.27;2.45;;;3.10;99.90;;;;;;5090447;28;20040;-47
2023/03/17 05:53:49;;;;;;;3.67;1.67;;;3.10;99.90;;;;;;5092283;28;20051;-51
2023/03/17 05:56:16;;;;;;;3.67;2.08;;;3.10;99.90;;;;;;5091462;28;20097;-48
2023/03/17 05:58:43;;;;;;;4.70;2.20;;;3.10;99.90;;;;;;5081727;28;20438;-49
2023/03/17 06:01:09;;;;;;;4.65;2.35;;;3.20;99.90;;;;;;5089236;28;20067;-49
2023/03/17 06:03:39;;;;;;;5.05;2.53;;;3.20;99.90;;;;;;5090813;28;20443;-51
2023/03/17 06:06:06;;;;;;;3.75;2.47;;;3.30;99.90;;;;;;5090832;28;20074;-52
2023/03/17 06:08:33;;;;;;;6.32;3.20;;;3.30;99.90;;;;;;5072643;28;20047;-48
2023/03/17 06:11:00;;;;;;;5.20;3.05;;;3.30;99.90;;;;;;5091552;28;20078;-50
2023/03/17 06:13:27;;;;;;;12.45;3.05;;;3.40;99.90;;;;;;5088704;28;20059;-48
2023/03/17 06:15:54;;;;;;;8.73;2.72;;;3.40;99.90;;;;;;5077040;28;20065;-50
2023/03/17 06:18:20;;;;;;;5.07;1.48;;;3.40;99.90;;;;;;5091688;28;20044;-48
2023/03/17 06:20:47;;;;;;;7.45;2.70;;;3.40;99.90;;;;;;5089864;28;20408;-50
2023/03/17 06:23:14;;;;;;;5.93;2.50;;;3.40;99.90;;;;;;5091363;28;20044;-49
2023/03/17 06:25:41;;;;;;;7.63;2.08;;;3.40;99.90;;;;;;5076677;28;20036;-49
2023/03/17 06:28:09;;;;;;;4.55;2.17;;;3.50;99.90;;;;;;5070795;28;20044;-49
2023/03/17 06:30:36;;;;;;;6.65;2.13;;;3.70;99.90;;;;;;5076347;28;20044;-50
2023/03/17 06:33:06;;;;;;;7.20;2.40;;;3.80;99.90;;;;;;5091797;28;20504;-49
2023/03/17 06:35:33;;;;;;;7.82;2.22;;;3.90;99.90;;;;;;5085832;28;20048;-50
2023/03/17 06:38:02;;;;;;;5.55;2.63;;;4.00;99.90;;;;;;5073202;28;20048;-50
2023/03/17 06:40:29;;;;;;;5.35;3.00;;;4.00;99.90;;;;;;5090464;28;20105;-49
2023/03/17 06:42:56;;;;;;;4.65;2.33;;;4.00;99.90;;;;;;5091704;28;20055;-50
2023/03/17 06:45:23;;;;;;;8.45;2.50;;;4.10;99.90;;;;;;5088889;28;20032;-51
2023/03/17 06:47:50;;;;;;;4.07;2.20;;;4.20;99.90;;;;;;5092260;28;20069;-49
2023/03/17 06:50:17;;;;;;;7.45;1.98;;;4.30;99.90;;;;;;5086904;28;20481;-48
2023/03/17 06:52:43;;;;;;;4.03;1.92;;;4.30;99.90;;;;;;5087149;28;20047;-49
2023/03/17 06:55:12;;;;;;;5.80;2.17;;;4.50;99.90;;;;;;5090779;28;20339;-49
2023/03/17 06:57:39;;;;;;;2.75;2.00;;;4.60;99.90;;;;;;5091582;28;20048;-49
2023/03/17 07:00:06;;;;;;;5.68;1.92;;;4.70;99.90;;;;;;5085371;28;20555;-49
2023/03/17 07:02:33;;;;;;;5.82;2.05;;;4.80;99.90;;;;;;5091460;28;20184;-49
2023/03/17 07:05:01;;;;;;;6.95;2.42;;;4.80;99.90;;;;;;5091080;28;20032;-48
2023/03/17 07:07:27;;;;;;;6.95;2.33;;;4.80;99.90;;;;;;5090252;28;20101;-49
2023/03/17 07:09:54;;;;;;;7.40;2.20;;;4.80;99.90;;;;;;5090565;28;20040;-49
2023/03/17 07:12:21;;;;;;;4.28;1.67;;;4.80;99.90;;;;;;5091082;28;20097;-49
2023/03/17 07:14:49;;;;;;;3.95;2.05;;;4.80;99.90;;;;;;5091227;28;20093;-51
2023/03/17 07:17:15;;;;;;;7.55;1.70;;;4.80;99.90;;;;;;5088221;28;20093;-50
2023/03/17 07:19:42;;;;;;;3.17;1.45;;;4.90;99.90;;;;;;5090709;28;20040;-49
2023/03/17 07:22:11;;;;;;;8.02;2.20;;;4.90;99.90;;;;;;5089790;28;20044;-52
2023/03/17 07:24:38;;;;;;;8.40;2.20;;;5.00;99.90;;;;;;5091090;28;20040;-49
2023/03/17 07:27:05;;;;;;;;;;;5.00;99.90;;;;;;5082357;28;20043;-50
2023/03/17 07:29:32;;;;;;;4.65;2.00;;;5.00;99.90;;;;;;5090519;28;19927;-48
2023/03/17 07:32:00;;;;;;;6.43;2.25;;;5.10;99.90;;;;;;5089838;28;20051;-52
2023/03/17 07:34:27;;;;;;;7.68;3.30;;;5.20;99.90;;;;;;5091105;28;20091;-49
2023/03/17 07:36:54;;;;;;;3.30;1.88;;;5.30;99.90;;;;;;5086679;28;20389;-50
2023/03/17 07:39:21;;;;;;;5.68;2.25;;;5.30;99.90;;;;;;5090644;28;20512;-51
2023/03/17 07:41:51;;;;;;;7.68;3.05;;;5.30;99.90;;;;;;5087550;28;20493;-49
2023/03/17 07:44:18;;;;;;;3.85;2.05;;;5.40;99.90;;;;;;5094918;28;20106;-51
2023/03/17 07:46:45;;;;;;;5.78;2.30;;;5.40;99.90;;;;;;5076661;28;20044;-51
2023/03/17 07:49:12;;;;;;;3.45;2.00;;;5.50;99.90;;;;;;5091942;28;20070;-50
2023/03/17 07:51:41;;;;;;;9.18;2.38;;;5.60;99.90;;;;;;5089646;28;20115;-50
2023/03/17 07:54:10;;;;;;;3.88;2.50;;;5.70;99.90;;;;;;5094700;28;20135;-49
2023/03/17 07:56:41;;;;;;;4.45;1.77;;;5.80;99.90;;;;;;5090691;28;20052;-49
2023/03/17 07:59:09;;;;;;;7.43;1.90;;;6.00;99.90;;;;;;5094075;28;20048;-49
2023/03/17 08:01:37;;;;;;;9.07;2.60;;;6.20;99.90;;;;;;5091315;28;20040;-49
2023/03/17 08:04:04;;;;;;;4.88;2.35;;;6.40;99.90;;;;;;5094405;28;20036;-50
2023/03/17 08:06:31;;;;;;;3.97;1.80;;;6.60;99.90;;;;;;5094044;28;20036;-49
2023/03/17 08:08:58;;;;;;;5.78;1.88;;;6.70;99.90;;;;;;5090658;28;20044;-50
2023/03/17 08:11:25;;;;;;;8.00;2.50;;;6.90;99.90;;;;;;5094550;28;20097;-50
2023/03/17 08:13:54;;;;;;;5.22;1.70;;;7.00;99.90;;;;;;5094633;28;20063;-49
2023/03/17 08:16:21;;;;;;;10.13;2.35;;;7.10;99.90;;;;;;5091360;28;20493;-50
2023/03/17 08:18:48;;;;;;;4.13;1.80;;;7.30;99.90;;;;;;5093931;28;20050;-49
2023/03/17 08:21:15;;;;;;;11.80;1.90;;;7.60;99.90;;;;;;5093602;28;20093;-49
2023/03/17 08:23:42;;;;;;;4.68;2.25;;;7.90;99.90;;;;;;5094554;28;20446;-51
2023/03/17 08:26:09;;;;;;;4.00;1.35;;;8.20;99.90;;;;;;5093436;28;20048;-49
2023/03/17 08:28:36;;;;;;;3.13;1.60;;;8.40;99.90;;;;;;5093960;28;20143;-52
2023/03/17 08:31:16;;;;;;;4.70;1.83;;;8.60;99.90;;;;;;5084555;28;20045;-49
2023/03/17 08:33:49;;;;;;;2.13;1.30;;;8.60;99.90;;;;;;5094173;28;20036;-48
2023/03/17 08:36:17;;;;;;;2.80;1.20;;;8.90;99.90;;;;;;5092793;28;20085;-48
2023/03/17 08:38:46;;;;;;;3.47;1.35;;;8.90;99.90;;;;;;5093540;28;20562;-50
2023/03/17 08:41:17;;;;;;;6.88;1.40;;;9.00;99.90;;;;;;5086967;28;20040;-50
2023/03/17 08:43:45;;;;;;;2.95;1.30;;;9.20;99.90;;;;;;5094136;28;20032;-49
2023/03/17 08:46:21;;;;;;;3.92;1.17;;;9.40;99.90;;;;;;5093932;28;20044;-48
2023/03/17 08:48:50;;;;;;;4.63;1.20;;;9.50;99.90;;;;;;5086656;28;20362;-50
2023/03/17 08:51:18;;;;;;;2.63;1.27;;;9.50;99.90;;;;;;5085374;28;20040;-49
2023/03/17 08:53:51;;;;;;;5.30;1.50;;;9.60;99.90;;;;;;5092693;28;20040;-50
2023/03/17 08:56:18;;;;;;;3.33;1.20;;;9.70;99.90;;;;;;5093687;28;20089;-50
2023/03/17 08:58:45;;;;;;;3.20;1.05;;;9.80;99.90;;;;;;5085916;28;20044;-49
2023/03/17 09:01:13;;;;;;;1.10;0.73;;;9.90;99.00;;;;;;5086806;28;20500;-49
2023/03/17 09:03:40;;;;;;;1.73;0.90;;;10.20;96.80;;;;;;5093412;28;20562;-48
2023/03/17 09:06:10;;;;;;;2.35;0.93;;;10.50;96.10;;;;;;5093167;28;20135;-49
2023/03/17 09:08:40;;;;;;;2.40;1.05;;;10.70;97.00;;;;;;5092079;28;20348;-48
2023/03/17 09:11:09;;;;;;;1.85;0.98;;;10.90;96.20;;;;;;5087057;28;20401;-49
2023/03/17 09:13:37;;;;;;;3.03;0.80;;;11.10;93.70;;;;;;5093332;28;20036;-48
2023/03/17 09:16:07;;;;;;;2.83;1.30;;;11.20;93.60;;;;;;5092958;28;20492;-49
2023/03/17 09:18:34;;;;;;;5.28;1.33;;;11.20;93.40;;;;;;5092899;28;20048;-51
2023/03/17 09:21:02;;;;;;;3.65;1.40;;;11.30;93.40;;;;;;5086127;28;20036;-50
2023/03/17 09:23:29;;;;;;;1.63;0.90;;;11.40;92.40;;;;;;5093402;28;20032;-49
2023/03/17 09:25:56;;;;;;;5.57;1.17;;;11.60;92.70;;;;;;5093338;28;20059;-48
2023/03/17 09:28:23;;;;;;;2.17;1.15;;;11.70;91.80;;;;;;5087615;28;20035;-49
2023/03/17 09:30:51;;;;;;;5.13;1.38;;;11.90;91.20;;;;;;5092846;28;20056;-50
2023/03/17 09:33:18;;;;;;;2.75;1.13;;;12.00;91.20;;;;;;5092961;28;20407;-49
2023/03/17 09:35:45;;;;;;;2.42;1.27;;;12.10;91.20;;;;;;5089937;28;20105;-49
2023/03/17 09:38:12;;;;;;;7.40;1.08;;;12.00;90.60;;;;;;5093057;28;20036;-52
2023/03/17 09:40:51;;;;;;;2.55;1.25;;;12.00;91.10;;;;;;5089668;28;20070;-48
2023/03/17 09:44:02;;;;;;;3.03;0.90;;;12.00;90.90;;;;;;5084536;28;20035;-49
2023/03/17 09:47:01;;;;;;;1.35;0.98;;;12.20;89.50;;;;;;5092211;28;20052;-48
2023/03/17 09:49:33;;;;;;;;;;;12.20;88.80;;;;;;5034877;28;20570;-49
2023/03/17 09:52:00;;;;;;;3.38;0.98;;;12.30;88.90;;;;;;5090226;28;19920;-48
2023/03/17 09:54:34;;;;;;;6.03;1.08;;;12.40;89.10;;;;;;5091236;28;20043;-52
2023/03/17 09:57:15;;;;;;;2.75;0.80;;;12.50;86.50;;;;;;5088654;28;20097;-49
2023/03/17 09:59:46;;;;;;;0.90;0.63;;;12.60;87.00;;;;;;5090749;28;20035;-49
2023/03/17 10:02:27;;;;;;;3.80;0.90;;;12.80;85.60;;;;;;5083422;28;20513;-49
2023/03/17 10:04:54;;;;;;;5.63;1.15;;;12.90;84.70;;;;;;5088870;28;20044;-48
2023/03/17 10:07:35;;;;;;;3.25;1.10;;;13.00;85.70;;;;;;5091104;28;20120;-49
2023/03/17 10:17:30;;;;;;;1.70;0.80;;;13.50;81.20;;;;;;5052220;28;20036;-50
2023/03/17 10:20:11;;;;;;;4.30;1.42;;;13.70;80.30;;;;;;5059808;28;20566;-51
2023/03/17 10:22:47;;;;;;;1.13;0.77;;;13.70;80.90;;;;;;5071411;28;20508;-50
2023/03/17 10:25:18;;;;;;;1.33;0.82;;;13.80;82.20;;;;;;5064957;28;20344;-51
2023/03/17 10:27:54;;;;;;;4.53;1.00;;;14.00;80.80;;;;;;5071072;28;20036;-53
2023/03/17 10:30:22;;;;;;;3.80;1.92;;;14.00;79.60;;;;;;5071259;28;20052;-50
2023/03/17 10:32:51;;;;;;;1.65;1.05;;;14.50;80.30;;;;;;5071472;28;20551;-51
2023/03/17 10:35:18;;;;;;;1.35;0.80;;;14.10;77.90;;;;;;5063445;28;20506;-48
2023/03/17 10:37:46;;;;;;;;;;;14.10;78.50;;;;;;5065904;28;20048;-47
2023/03/17 10:40:24;;;;;;;1.20;0.80;;;14.30;79.40;;;;;;5070486;28;19928;-49
2023/03/17 10:43:06;;;;;;;0.50;0.50;;;14.50;78.20;;;;;;5070481;28;20045;-50
2023/03/17 10:45:34;;;;;;;5.68;0.85;;;14.60;76.70;;;;;;5066226;28;20048;-49
2023/03/17 10:48:08;;;;;;;1.38;0.60;;;14.70;76.10;;;;;;5053110;28;20127;-47
2023/03/17 10:50:36;;;;;;;3.20;0.80;;;14.80;77.50;;;;;;5071496;28;20394;-50
2023/03/17 10:53:03;;;;;;;1.48;0.60;;;15.00;77.60;;;;;;5064941;28;20045;-50
2023/03/17 10:55:43;;;;;;;2.53;0.98;;;15.10;74.70;;;;;;5071030;28;20041;-51
2023/03/17 10:58:14;;;;;;;3.83;1.15;;;15.20;77.00;;;;;;5065531;28;20064;-51
2023/03/17 11:01:01;;;;;;;5.75;0.80;;;15.30;75.30;;;;;;5070949;28;20109;-50
2023/03/17 11:03:35;;;;;;;1.98;1.00;;;15.40;74.60;;;;;;5071264;28;20044;-51
2023/03/17 11:06:03;;;;;;;3.55;0.88;;;15.50;74.30;;;;;;5066626;28;20044;-50
2023/03/17 11:08:40;;;;;;;2.10;1.42;;;15.70;74.10;;;;;;5070555;28;20086;-50
2023/03/17 11:11:09;;;;;;;1.52;0.95;;;15.90;74.60;;;;;;5071414;28;20044;-50
2023/03/17 11:13:36;;;;;;;2.97;1.10;;;15.90;72.30;;;;;;5067787;28;20405;-53
2023/03/17 11:16:16;;;;;;;3.60;1.20;;;16.00;74.00;;;;;;5068822;28;20044;-49
2023/03/17 11:18:44;;;;;;;5.93;1.65;;;16.20;74.60;;;;;;5070191;28;20040;-50
2023/03/17 11:21:22;;;;;;;2.35;1.15;;;16.40;72.00;;;;;;5071591;28;20094;-49
2023/03/17 11:23:48;;;;;;;2.95;1.17;;;16.50;73.20;;;;;;5066763;28;20037;-49
2023/03/17 11:26:21;;;;;;;1.92;1.08;;;16.40;72.40;;;;;;5071090;28;20048;-50
2023/03/17 11:29:07;;;;;;;2.85;1.38;;;16.40;72.50;;;;;;5065754;28;20052;-53
2023/03/17 11:31:54;;;;;;;2.10;1.20;;;16.40;73.30;;;;;;5065414;28;20049;-54
2023/03/17 11:34:46;;;;;;;2.55;0.90;;;16.50;73.60;;;;;;5062654;28;20049;-50
2023/03/17 11:37:19;;;;;;;1.80;1.20;;;16.70;71.70;;;;;;5069752;28;20068;-53
2023/03/17 11:40:10;;;;;;;4.80;1.30;;;16.80;70.40;;;;;;5069886;28;20037;-52
2023/03/17 11:43:24;;;;;;;2.85;1.10;;;16.80;69.80;;;;;;5067290;28;20546;-50
2023/03/17 11:46:17;;;;;;;1.83;1.02;;;16.90;69.40;;;;;;5070281;28;20551;-52
2023/03/17 11:49:23;;;;;;;2.00;0.90;;;17.00;69.40;;;;;;5068518;28;20045;-51
2023/03/17 11:51:55;;;;;;;2.47;0.88;;;17.10;69.30;;;;;;5066808;28;20501;-51
2023/03/17 11:54:47;;;;;;;2.30;1.30;;;17.20;67.20;;;;;;5067325;28;20106;-49
2023/03/17 11:57:34;;;;;;;3.38;1.40;;;17.00;69.00;;;;;;5066250;28;20078;-50
2023/03/17 12:00:22;;;;;;;1.75;0.90;;;17.20;68.20;;;;;;5070456;28;20516;-50
2023/03/17 12:02:57;;;;;;;1.38;0.80;;;17.40;67.10;;;;;;5070028;28;20478;-53
2023/03/17 12:05:26;;;;;;;1.83;1.05;;;17.60;66.60;;;;;;5065496;28;20455;-49
2023/03/17 12:08:08;;;;;;;1.05;0.63;;;17.60;65.60;;;;;;5066514;28;20199;-51
2023/03/17 12:10:44;;;;;;;2.58;1.05;;;17.60;66.10;;;;;;5050446;28;20735;-50
2023/03/17 12:13:34;;;;;;;1.13;0.80;;;17.80;66.30;;;;;;5050829;28;20460;-50
2023/03/17 12:16:10;;;;;;;2.63;1.00;;;17.90;65.60;;;;;;5066915;28;20032;-50
2023/03/17 12:19:11;;;;;;;7.47;0.98;;;17.80;64.30;;;;;;5069674;28;20041;-50
2023/03/17 12:21:40;;;;;;;2.80;1.10;;;17.80;66.10;;;;;;5067157;28;20578;-54
2023/03/17 12:24:29;;;;;;;1.27;0.93;;;17.90;64.30;;;;;;5070044;28;20037;-50
2023/03/17 12:27:02;;;;;;;2.80;0.80;;;17.80;64.70;;;;;;5067480;28;20127;-49
2023/03/17 12:29:48;;;;;;;1.73;0.90;;;17.90;65.50;;;;;;5068778;28;20059;-51
2023/03/17 12:32:31;;;;;;;2.63;0.88;;;17.80;64.00;;;;;;5071366;28;20044;-51
2023/03/17 12:35:03;;;;;;;1.25;0.88;;;17.90;64.20;;;;;;5070451;28;20055;-49
2023/03/17 12:37:31;;;;;;;2.25;0.77;;;18.10;66.30;;;;;;5071520;28;20101;-50
2023/03/17 12:40:06;;;;;;;;;;;18.20;64.70;;;;;;5072992;28;20041;-49
2023/03/17 12:42:51;;;;;;;1.75;1.40;;;18.30;63.70;;;;;;5070468;28;19920;-53
2023/03/17 12:45:38;;;;;;;3.17;1.10;;;18.40;63.30;;;;;;5064980;28;20032;-49
2023/03/17 12:48:16;;;;;;;3.20;1.35;;;18.60;62.90;;;;;;5073519;28;20464;-50
2023/03/17 12:51:17;;;;;;;2.40;1.35;;;18.60;61.90;;;;;;5073779;28;20105;-50
2023/03/17 12:53:50;;;;;;;3.10;1.20;;;18.60;61.50;;;;;;5064033;28;20102;-49
2023/03/17 12:56:25;;;;;;;2.90;1.20;;;18.60;62.50;;;;;;5073727;28;20089;-50
2023/03/17 12:58:57;;;;;;;4.03;1.27;;;18.50;62.80;;;;;;5069061;28;20550;-50
2023/03/17 13:01:37;;;;;;;2.75;1.30;;;18.60;62.70;;;;;;5073292;28;20500;-51
2023/03/17 13:04:13;;;;;;;2.10;1.20;;;18.70;61.70;;;;;;5070758;28;20041;-50
2023/03/17 13:07:17;;;;;;;2.67;1.00;;;18.80;61.60;;;;;;5070530;28;20122;-49
2023/03/17 13:09:52;;;;;;;1.48;1.23;;;18.80;60.80;;;;;;5070172;28;20044;-50
2023/03/17 13:12:41;;;;;;;4.07;1.23;;;19.00;62.00;;;;;;5067206;28;20044;-49
2023/03/17 13:15:47;;;;;;;1.85;1.15;;;18.90;62.80;;;;;;5073165;28;20208;-49
2023/03/17 13:18:17;;;;;;;1.50;0.80;;;18.90;61.60;;;;;;5072599;28;20725;-49
2023/03/17 13:20:55;;;;;;;2.92;1.70;;;18.90;61.40;;;;;;5067102;28;20044;-49
2023/03/17 13:23:36;;;;;;;2.42;1.50;;;18.80;62.60;;;;;;5073133;28;20506;-49